Rehobeth, Alabama
Current Conditions -  °F | °C
As of 3:53 PM on Thursday 27 Nov 2014 (Local Time) from KDHN Reporting Station
Clear Clear  
Wind Chill: 53°   Ceiling: Unl
Heat Index: 53°   Visibility: 10mi
Dew Point: 30°   Wind: 15mph
Humidity: 41%   Direction: 330°NNW
Pressure: 30.34"   Gusts: NA
Location:  31.271°N, 85.3923°W
Report Text: KDHN 272153Z 33013KT 10SM CLR 12/M01 A3034 RMK AO2 SLP274 T01171011
Loading
Personal Weather Stations






























Interactive Weather Map New forecast layout! Learn more

10-Day Weather Forecast

Advertisements
Track Severe Weather on mobile